sensor_id;sensor_type;location;lat;lon;timestamp;temperature;humidity
16829;DHT22;8531;48.078;11.968;2024-01-27T00:01:43;3.60;99.90
16829;DHT22;8531;48.078;11.968;2024-01-27T00:04:08;3.50;99.90
16829;DHT22;8531;48.078;11.968;2024-01-27T00:06:34;3.40;99.90
16829;DHT22;8531;48.078;11.968;2024-01-27T00:09:00;3.50;99.90
16829;DHT22;8531;48.078;11.968;2024-01-27T00:11:25;3.50;99.90
16829;DHT22;8531;48.078;11.968;2024-01-27T00:13:51;3.60;99.90
16829;DHT22;8531;48.078;11.968;2024-01-27T00:16:17;3.50;99.90
16829;DHT22;8531;48.078;11.968;2024-01-27T00:18:43;3.50;99.90
16829;DHT22;8531;48.078;11.968;2024-01-27T00:21:08;3.40;99.90
16829;DHT22;8531;48.078;11.968;2024-01-27T00:23:34;3.30;99.90
16829;DHT22;8531;48.078;11.968;2024-01-27T00:26:00;3.30;99.90
16829;DHT22;8531;48.078;11.968;2024-01-27T00:28:26;3.30;99.90
16829;DHT22;8531;48.078;11.968;2024-01-27T00:30:52;3.30;99.90
16829;DHT22;8531;48.078;11.968;2024-01-27T00:33:17;3.30;99.90
16829;DHT22;8531;48.078;11.968;2024-01-27T00:35:43;3.30;99.90
16829;DHT22;8531;48.078;11.968;2024-01-27T00:38:09;3.30;99.90
16829;DHT22;8531;48.078;11.968;2024-01-27T00:40:35;3.20;99.90
16829;DHT22;8531;48.078;11.968;2024-01-27T00:43:02;3.20;99.90
16829;DHT22;8531;48.078;11.968;2024-01-27T00:45:28;3.10;99.90
16829;DHT22;8531;48.078;11.968;2024-01-27T00:47:56;3.10;99.90
16829;DHT22;8531;48.078;11.968;2024-01-27T00:50:22;3.10;99.90
16829;DHT22;8531;48.078;11.968;2024-01-27T00:52:47;3.10;99.90
16829;DHT22;8531;48.078;11.968;2024-01-27T00:55:13;3.10;99.90
16829;DHT22;8531;48.078;11.968;2024-01-27T00:57:39;3.10;99.90
16829;DHT22;8531;48.078;11.968;2024-01-27T01:00:05;2.90;99.90
16829;DHT22;8531;48.078;11.968;2024-01-27T01:02:32;2.90;99.90
16829;DHT22;8531;48.078;11.968;2024-01-27T01:04:57;2.80;99.90
16829;DHT22;8531;48.078;11.968;2024-01-27T01:07:23;2.80;99.90
16829;DHT22;8531;48.078;11.968;2024-01-27T01:09:49;2.80;99.90
16829;DHT22;8531;48.078;11.968;2024-01-27T01:12:14;2.80;99.90
16829;DHT22;8531;48.078;11.968;2024-01-27T01:14:41;2.70;99.90
16829;DHT22;8531;48.078;11.968;2024-01-27T01:17:07;2.80;99.90
16829;DHT22;8531;48.078;11.968;2024-01-27T01:19:32;2.80;99.90
16829;DHT22;8531;48.078;11.968;2024-01-27T01:21:58;2.80;99.90
16829;DHT22;8531;48.078;11.968;2024-01-27T01:24:24;2.80;99.90
16829;DHT22;8531;48.078;11.968;2024-01-27T01:26:49;2.80;99.90
16829;DHT22;8531;48.078;11.968;2024-01-27T01:29:15;2.70;99.90
16829;DHT22;8531;48.078;11.968;2024-01-27T01:31:42;2.70;99.90
16829;DHT22;8531;48.078;11.968;2024-01-27T01:34:08;2.70;99.90
16829;DHT22;8531;48.078;11.968;2024-01-27T01:36:34;2.70;99.90
16829;DHT22;8531;48.078;11.968;2024-01-27T01:38:59;2.60;99.90
16829;DHT22;8531;48.078;11.968;2024-01-27T01:41:25;2.60;99.90
16829;DHT22;8531;48.078;11.968;2024-01-27T01:43:51;2.60;99.90
16829;DHT22;8531;48.078;11.968;2024-01-27T01:46:17;2.50;99.90
16829;DHT22;8531;48.078;11.968;2024-01-27T01:48:43;2.50;99.90
16829;DHT22;8531;48.078;11.968;2024-01-27T01:51:09;2.50;99.90
16829;DHT22;8531;48.078;11.968;2024-01-27T01:53:34;2.40;99.90
16829;DHT22;8531;48.078;11.968;2024-01-27T01:56:01;2.50;99.90
16829;DHT22;8531;48.078;11.968;2024-01-27T01:58:28;2.40;99.90
16829;DHT22;8531;48.078;11.968;2024-01-27T02:01:00;2.50;99.90
16829;DHT22;8531;48.078;11.968;2024-01-27T02:03:26;2.40;99.90
16829;DHT22;8531;48.078;11.968;2024-01-27T02:05:51;2.40;99.90
16829;DHT22;8531;48.078;11.968;2024-01-27T02:08:17;2.40;99.90
16829;DHT22;8531;48.078;11.968;2024-01-27T02:10:43;2.30;99.90
16829;DHT22;8531;48.078;11.968;2024-01-27T02:13:19;2.30;99.90
16829;DHT22;8531;48.078;11.968;2024-01-27T02:15:46;2.30;99.90
16829;DHT22;8531;48.078;11.968;2024-01-27T02:18:12;2.40;99.90
16829;DHT22;8531;48.078;11.968;2024-01-27T02:20:37;2.40;99.90
16829;DHT22;8531;48.078;11.968;2024-01-27T02:23:04;2.40;99.90
16829;DHT22;8531;48.078;11.968;2024-01-27T02:25:31;2.50;99.90
16829;DHT22;8531;48.078;11.968;2024-01-27T02:27:56;2.50;99.90
16829;DHT22;8531;48.078;11.968;2024-01-27T02:30:23;2.50;99.90
16829;DHT22;8531;48.078;11.968;2024-01-27T02:32:49;2.60;99.90
16829;DHT22;8531;48.078;11.968;2024-01-27T02:35:15;2.60;99.90
16829;DHT22;8531;48.078;11.968;2024-01-27T02:37:41;2.60;99.90
16829;DHT22;8531;48.078;11.968;2024-01-27T02:40:08;2.60;99.90
16829;DHT22;8531;48.078;11.968;2024-01-27T02:42:35;2.60;99.90
16829;DHT22;8531;48.078;11.968;2024-01-27T02:45:01;2.60;99.90
16829;DHT22;8531;48.078;11.968;2024-01-27T02:47:27;2.60;99.90
16829;DHT22;8531;48.078;11.968;2024-01-27T02:49:53;2.60;99.90
16829;DHT22;8531;48.078;11.968;2024-01-27T02:52:18;2.70;99.90
16829;DHT22;8531;48.078;11.968;2024-01-27T02:54:44;2.70;99.90
16829;DHT22;8531;48.078;11.968;2024-01-27T02:57:11;2.70;99.90
16829;DHT22;8531;48.078;11.968;2024-01-27T02:59:36;2.70;99.90
16829;DHT22;8531;48.078;11.968;2024-01-27T03:02:04;2.70;99.90
16829;DHT22;8531;48.078;11.968;2024-01-27T03:04:30;2.70;99.90
16829;DHT22;8531;48.078;11.968;2024-01-27T03:06:56;2.60;99.90
16829;DHT22;8531;48.078;11.968;2024-01-27T03:09:21;2.60;99.90
16829;DHT22;8531;48.078;11.968;2024-01-27T03:11:47;2.60;99.90
16829;DHT22;8531;48.078;11.968;2024-01-27T03:14:13;2.60;99.90
16829;DHT22;8531;48.078;11.968;2024-01-27T03:16:38;2.60;99.90
16829;DHT22;8531;48.078;11.968;2024-01-27T03:19:04;2.50;99.90
16829;DHT22;8531;48.078;11.968;2024-01-27T03:21:30;2.50;99.90
16829;DHT22;8531;48.078;11.968;2024-01-27T03:23:55;2.50;99.90
16829;DHT22;8531;48.078;11.968;2024-01-27T03:26:21;2.50;99.90
16829;DHT22;8531;48.078;11.968;2024-01-27T03:28:47;2.40;99.90
16829;DHT22;8531;48.078;11.968;2024-01-27T03:31:13;2.40;99.90
16829;DHT22;8531;48.078;11.968;2024-01-27T03:33:38;2.30;99.90
16829;DHT22;8531;48.078;11.968;2024-01-27T03:36:10;2.30;99.90
16829;DHT22;8531;48.078;11.968;2024-01-27T03:38:36;2.30;99.90
16829;DHT22;8531;48.078;11.968;2024-01-27T03:41:03;2.30;99.90
16829;DHT22;8531;48.078;11.968;2024-01-27T03:43:29;2.30;99.90
16829;DHT22;8531;48.078;11.968;2024-01-27T03:45:56;2.30;99.90
16829;DHT22;8531;48.078;11.968;2024-01-27T03:48:21;2.30;99.90
16829;DHT22;8531;48.078;11.968;2024-01-27T03:50:47;2.20;99.90
16829;DHT22;8531;48.078;11.968;2024-01-27T03:53:12;2.20;99.90
16829;DHT22;8531;48.078;11.968;2024-01-27T03:55:38;2.20;99.90
16829;DHT22;8531;48.078;11.968;2024-01-27T03:58:04;2.30;99.90
16829;DHT22;8531;48.078;11.968;2024-01-27T04:00:29;2.30;99.90
16829;DHT22;8531;48.078;11.968;2024-01-27T04:03:01;2.30;99.90
16829;DHT22;8531;48.078;11.968;2024-01-27T04:05:29;2.20;99.90
16829;DHT22;8531;48.078;11.968;2024-01-27T04:07:56;2.20;99.90
16829;DHT22;8531;48.078;11.968;2024-01-27T04:10:22;2.30;99.90
16829;DHT22;8531;48.078;11.968;2024-01-27T04:12:48;2.30;99.90
16829;DHT22;8531;48.078;11.968;2024-01-27T04:15:14;2.30;99.90
16829;DHT22;8531;48.078;11.968;2024-01-27T04:17:40;2.30;99.90
16829;DHT22;8531;48.078;11.968;2024-01-27T04:20:07;2.30;99.90
16829;DHT22;8531;48.078;11.968;2024-01-27T04:22:34;2.40;99.90
16829;DHT22;8531;48.078;11.968;2024-01-27T04:25:00;2.40;99.90
16829;DHT22;8531;48.078;11.968;2024-01-27T04:27:29;2.40;99.90
16829;DHT22;8531;48.078;11.968;2024-01-27T04:29:55;2.40;99.90
16829;DHT22;8531;48.078;11.968;2024-01-27T04:32:22;2.30;99.90
16829;DHT22;8531;48.078;11.968;2024-01-27T04:34:49;2.40;99.90
16829;DHT22;8531;48.078;11.968;2024-01-27T04:37:14;2.30;99.90
16829;DHT22;8531;48.078;11.968;2024-01-27T04:39:40;2.30;99.90
16829;DHT22;8531;48.078;11.968;2024-01-27T04:42:06;2.30;99.90
16829;DHT22;8531;48.078;11.968;2024-01-27T04:44:32;2.30;99.90
16829;DHT22;8531;48.078;11.968;2024-01-27T04:46:58;2.30;99.90
16829;DHT22;8531;48.078;11.968;2024-01-27T04:49:25;2.30;99.90
16829;DHT22;8531;48.078;11.968;2024-01-27T04:51:51;2.30;99.90
16829;DHT22;8531;48.078;11.968;2024-01-27T04:54:16;2.30;99.90
16829;DHT22;8531;48.078;11.968;2024-01-27T04:56:42;2.20;99.90
16829;DHT22;8531;48.078;11.968;2024-01-27T04:59:08;2.20;99.90
16829;DHT22;8531;48.078;11.968;2024-01-27T05:01:34;2.10;99.90
16829;DHT22;8531;48.078;11.968;2024-01-27T05:04:00;2.10;99.90
16829;DHT22;8531;48.078;11.968;2024-01-27T05:06:25;2.10;99.90
16829;DHT22;8531;48.078;11.968;2024-01-27T05:08:51;2.10;99.90
16829;DHT22;8531;48.078;11.968;2024-01-27T05:11:29;2.10;99.90
16829;DHT22;8531;48.078;11.968;2024-01-27T05:13:55;2.10;99.90
16829;DHT22;8531;48.078;11.968;2024-01-27T05:16:21;2.10;99.90
16829;DHT22;8531;48.078;11.968;2024-01-27T05:18:46;2.10;99.90
16829;DHT22;8531;48.078;11.968;2024-01-27T05:21:12;2.10;99.90
16829;DHT22;8531;48.078;11.968;2024-01-27T05:23:38;2.10;99.90
16829;DHT22;8531;48.078;11.968;2024-01-27T05:26:08;2.00;99.90
16829;DHT22;8531;48.078;11.968;2024-01-27T05:28:36;2.00;99.90
16829;DHT22;8531;48.078;11.968;2024-01-27T05:31:03;2.00;99.90
16829;DHT22;8531;48.078;11.968;2024-01-27T05:33:29;1.90;99.90
16829;DHT22;8531;48.078;11.968;2024-01-27T05:35:55;2.00;99.90
16829;DHT22;8531;48.078;11.968;2024-01-27T05:38:20;2.00;99.90
16829;DHT22;8531;48.078;11.968;2024-01-27T05:40:47;2.00;99.90
16829;DHT22;8531;48.078;11.968;2024-01-27T05:43:14;2.00;99.90
16829;DHT22;8531;48.078;11.968;2024-01-27T05:45:40;2.00;99.90
16829;DHT22;8531;48.078;11.968;2024-01-27T05:48:06;2.00;99.90
16829;DHT22;8531;48.078;11.968;2024-01-27T05:50:31;1.90;99.90
16829;DHT22;8531;48.078;11.968;2024-01-27T05:52:57;1.90;99.90
16829;DHT22;8531;48.078;11.968;2024-01-27T05:55:23;1.90;99.90
16829;DHT22;8531;48.078;11.968;2024-01-27T05:57:49;1.80;99.90
16829;DHT22;8531;48.078;11.968;2024-01-27T06:00:15;1.80;99.90
16829;DHT22;8531;48.078;11.968;2024-01-27T06:02:40;1.80;99.90
16829;DHT22;8531;48.078;11.968;2024-01-27T06:05:06;1.80;99.90
16829;DHT22;8531;48.078;11.968;2024-01-27T06:07:34;1.70;99.90
16829;DHT22;8531;48.078;11.968;2024-01-27T06:10:00;1.70;99.90
16829;DHT22;8531;48.078;11.968;2024-01-27T06:12:25;1.60;99.90
16829;DHT22;8531;48.078;11.968;2024-01-27T06:14:51;1.60;99.90
16829;DHT22;8531;48.078;11.968;2024-01-27T06:17:17;1.60;99.90
16829;DHT22;8531;48.078;11.968;2024-01-27T06:19:42;1.60;99.90
16829;DHT22;8531;48.078;11.968;2024-01-27T06:22:08;1.60;99.90
16829;DHT22;8531;48.078;11.968;2024-01-27T06:24:33;1.60;99.90
16829;DHT22;8531;48.078;11.968;2024-01-27T06:26:59;1.60;99.90
16829;DHT22;8531;48.078;11.968;2024-01-27T06:29:25;1.50;99.90
16829;DHT22;8531;48.078;11.968;2024-01-27T06:31:52;1.50;99.90
16829;DHT22;8531;48.078;11.968;2024-01-27T06:34:18;1.50;99.90
16829;DHT22;8531;48.078;11.968;2024-01-27T06:36:43;1.50;99.90
16829;DHT22;8531;48.078;11.968;2024-01-27T06:39:09;1.50;99.90
16829;DHT22;8531;48.078;11.968;2024-01-27T06:41:35;1.40;99.90
16829;DHT22;8531;48.078;11.968;2024-01-27T06:44:00;1.40;99.90
16829;DHT22;8531;48.078;11.968;2024-01-27T06:46:26;1.40;99.90
16829;DHT22;8531;48.078;11.968;2024-01-27T06:48:52;1.40;99.90
16829;DHT22;8531;48.078;11.968;2024-01-27T06:51:17;1.40;99.90
16829;DHT22;8531;48.078;11.968;2024-01-27T06:53:43;1.40;99.90
16829;DHT22;8531;48.078;11.968;2024-01-27T06:56:08;1.40;99.90
16829;DHT22;8531;48.078;11.968;2024-01-27T06:58:34;1.50;99.90
16829;DHT22;8531;48.078;11.968;2024-01-27T07:01:00;1.40;99.90
16829;DHT22;8531;48.078;11.968;2024-01-27T07:03:26;1.40;99.90
16829;DHT22;8531;48.078;11.968;2024-01-27T07:05:51;1.40;99.90
16829;DHT22;8531;48.078;11.968;2024-01-27T07:08:17;1.40;99.90
16829;DHT22;8531;48.078;11.968;2024-01-27T07:10:43;1.40;99.90
16829;DHT22;8531;48.078;11.968;2024-01-27T07:13:08;1.30;99.90
16829;DHT22;8531;48.078;11.968;2024-01-27T07:15:34;1.30;99.90
16829;DHT22;8531;48.078;11.968;2024-01-27T07:18:00;1.30;99.90
16829;DHT22;8531;48.078;11.968;2024-01-27T07:20:25;1.30;99.90
16829;DHT22;8531;48.078;11.968;2024-01-27T07:22:51;1.30;99.90
16829;DHT22;8531;48.078;11.968;2024-01-27T07:25:17;1.30;99.90
16829;DHT22;8531;48.078;11.968;2024-01-27T07:27:42;1.40;99.90
16829;DHT22;8531;48.078;11.968;2024-01-27T07:30:09;1.40;99.90
16829;DHT22;8531;48.078;11.968;2024-01-27T07:32:36;1.50;99.90
16829;DHT22;8531;48.078;11.968;2024-01-27T07:35:02;1.50;99.90
16829;DHT22;8531;48.078;11.968;2024-01-27T07:37:28;1.50;99.90
16829;DHT22;8531;48.078;11.968;2024-01-27T07:39:53;1.50;99.90
16829;DHT22;8531;48.078;11.968;2024-01-27T07:42:19;1.50;99.90
16829;DHT22;8531;48.078;11.968;2024-01-27T07:44:45;1.50;99.90
16829;DHT22;8531;48.078;11.968;2024-01-27T07:47:10;1.50;99.90
16829;DHT22;8531;48.078;11.968;2024-01-27T07:49:36;1.60;99.90
16829;DHT22;8531;48.078;11.968;2024-01-27T07:52:02;1.70;99.90
16829;DHT22;8531;48.078;11.968;2024-01-27T07:54:27;1.70;99.90
16829;DHT22;8531;48.078;11.968;2024-01-27T07:56:54;1.70;99.90
16829;DHT22;8531;48.078;11.968;2024-01-27T07:59:20;1.80;99.90
16829;DHT22;8531;48.078;11.968;2024-01-27T08:01:46;1.90;99.90
16829;DHT22;8531;48.078;11.968;2024-01-27T08:04:14;1.90;99.90
16829;DHT22;8531;48.078;11.968;2024-01-27T08:06:49;2.00;99.90
16829;DHT22;8531;48.078;11.968;2024-01-27T08:09:15;2.10;99.90
16829;DHT22;8531;48.078;11.968;2024-01-27T08:11:41;2.20;99.90
16829;DHT22;8531;48.078;11.968;2024-01-27T08:14:07;2.20;99.90
16829;DHT22;8531;48.078;11.968;2024-01-27T08:16:33;2.30;99.90
16829;DHT22;8531;48.078;11.968;2024-01-27T08:18:58;2.30;99.90
16829;DHT22;8531;48.078;11.968;2024-01-27T08:21:24;2.40;99.90
16829;DHT22;8531;48.078;11.968;2024-01-27T08:23:49;2.50;99.90
16829;DHT22;8531;48.078;11.968;2024-01-27T08:26:15;2.50;99.90
16829;DHT22;8531;48.078;11.968;2024-01-27T08:28:41;2.60;99.90
16829;DHT22;8531;48.078;11.968;2024-01-27T08:31:06;2.60;99.90
16829;DHT22;8531;48.078;11.968;2024-01-27T08:33:32;2.70;99.90
16829;DHT22;8531;48.078;11.968;2024-01-27T08:35:58;2.80;99.90
16829;DHT22;8531;48.078;11.968;2024-01-27T08:38:23;2.80;99.90
16829;DHT22;8531;48.078;11.968;2024-01-27T08:40:49;2.90;99.90
16829;DHT22;8531;48.078;11.968;2024-01-27T08:43:15;2.90;99.90
16829;DHT22;8531;48.078;11.968;2024-01-27T08:45:41;3.00;99.90
16829;DHT22;8531;48.078;11.968;2024-01-27T08:48:07;3.00;99.90
16829;DHT22;8531;48.078;11.968;2024-01-27T08:50:33;3.00;99.90
16829;DHT22;8531;48.078;11.968;2024-01-27T08:52:59;3.10;99.90
16829;DHT22;8531;48.078;11.968;2024-01-27T08:55:24;3.20;99.90
16829;DHT22;8531;48.078;11.968;2024-01-27T08:57:50;3.10;99.90
16829;DHT22;8531;48.078;11.968;2024-01-27T09:00:16;3.20;99.90
16829;DHT22;8531;48.078;11.968;2024-01-27T09:02:45;3.20;99.90
16829;DHT22;8531;48.078;11.968;2024-01-27T09:05:11;3.20;99.90
16829;DHT22;8531;48.078;11.968;2024-01-27T09:07:38;3.30;99.90
16829;DHT22;8531;48.078;11.968;2024-01-27T09:10:04;3.30;99.90
16829;DHT22;8531;48.078;11.968;2024-01-27T09:12:30;3.30;99.90
16829;DHT22;8531;48.078;11.968;2024-01-27T09:14:55;3.40;99.90
16829;DHT22;8531;48.078;11.968;2024-01-27T09:17:21;3.40;99.90
16829;DHT22;8531;48.078;11.968;2024-01-27T09:19:47;3.50;99.90
16829;DHT22;8531;48.078;11.968;2024-01-27T09:22:13;3.50;99.90
16829;DHT22;8531;48.078;11.968;2024-01-27T09:24:39;3.40;99.90
16829;DHT22;8531;48.078;11.968;2024-01-27T09:27:05;3.50;99.90
16829;DHT22;8531;48.078;11.968;2024-01-27T09:29:31;3.50;99.90
16829;DHT22;8531;48.078;11.968;2024-01-27T09:31:57;3.50;99.90
16829;DHT22;8531;48.078;11.968;2024-01-27T09:34:22;3.60;99.90
16829;DHT22;8531;48.078;11.968;2024-01-27T09:36:48;3.70;99.90
16829;DHT22;8531;48.078;11.968;2024-01-27T09:39:14;3.70;99.90
16829;DHT22;8531;48.078;11.968;2024-01-27T09:41:40;3.70;99.90
16829;DHT22;8531;48.078;11.968;2024-01-27T09:44:06;3.70;99.90
16829;DHT22;8531;48.078;11.968;2024-01-27T09:46:32;3.60;99.90
16829;DHT22;8531;48.078;11.968;2024-01-27T09:48:58;3.60;99.90
16829;DHT22;8531;48.078;11.968;2024-01-27T09:51:25;3.70;99.90
16829;DHT22;8531;48.078;11.968;2024-01-27T09:53:51;3.80;99.90
16829;DHT22;8531;48.078;11.968;2024-01-27T09:56:17;3.80;99.90
16829;DHT22;8531;48.078;11.968;2024-01-27T09:58:45;3.90;99.90
16829;DHT22;8531;48.078;11.968;2024-01-27T10:01:11;4.00;99.90
16829;DHT22;8531;48.078;11.968;2024-01-27T10:03:40;4.00;99.90
16829;DHT22;8531;48.078;11.968;2024-01-27T10:06:09;3.90;99.90
16829;DHT22;8531;48.078;11.968;2024-01-27T10:08:36;4.00;99.90
16829;DHT22;8531;48.078;11.968;2024-01-27T10:11:09;3.90;99.90
16829;DHT22;8531;48.078;11.968;2024-01-27T10:13:36;4.10;99.90
16829;DHT22;8531;48.078;11.968;2024-01-27T10:16:08;4.00;99.90
16829;DHT22;8531;48.078;11.968;2024-01-27T10:18:34;4.00;99.90
16829;DHT22;8531;48.078;11.968;2024-01-27T10:21:00;4.00;99.90
16829;DHT22;8531;48.078;11.968;2024-01-27T10:23:39;4.10;99.90
16829;DHT22;8531;48.078;11.968;2024-01-27T10:26:05;4.10;99.90
16829;DHT22;8531;48.078;11.968;2024-01-27T10:28:31;4.20;99.90
16829;DHT22;8531;48.078;11.968;2024-01-27T10:31:10;4.30;99.90
16829;DHT22;8531;48.078;11.968;2024-01-27T10:33:36;4.40;99.90
16829;DHT22;8531;48.078;11.968;2024-01-27T10:36:02;4.40;99.90
16829;DHT22;8531;48.078;11.968;2024-01-27T10:38:38;4.40;99.90
16829;DHT22;8531;48.078;11.968;2024-01-27T10:41:08;4.50;99.90
16829;DHT22;8531;48.078;11.968;2024-01-27T10:43:36;4.50;99.90
16829;DHT22;8531;48.078;11.968;2024-01-27T10:46:06;4.50;99.90
16829;DHT22;8531;48.078;11.968;2024-01-27T10:48:35;4.60;99.90
16829;DHT22;8531;48.078;11.968;2024-01-27T10:51:09;4.60;99.90
16829;DHT22;8531;48.078;11.968;2024-01-27T10:53:36;4.60;99.90
16829;DHT22;8531;48.078;11.968;2024-01-27T10:56:04;4.60;99.90
16829;DHT22;8531;48.078;11.968;2024-01-27T10:58:35;4.60;99.90
16829;DHT22;8531;48.078;11.968;2024-01-27T11:01:11;4.60;99.90
16829;DHT22;8531;48.078;11.968;2024-01-27T11:03:40;4.70;99.90
16829;DHT22;8531;48.078;11.968;2024-01-27T11:06:07;4.70;99.90
16829;DHT22;8531;48.078;11.968;2024-01-27T11:08:34;4.70;99.90
16829;DHT22;8531;48.078;11.968;2024-01-27T11:11:00;4.80;99.90
16829;DHT22;8531;48.078;11.968;2024-01-27T11:13:28;4.90;99.90
16829;DHT22;8531;48.078;11.968;2024-01-27T11:15:55;4.90;99.90
16829;DHT22;8531;48.078;11.968;2024-01-27T11:18:20;5.10;99.90
16829;DHT22;8531;48.078;11.968;2024-01-27T11:20:46;5.20;99.90
16829;DHT22;8531;48.078;11.968;2024-01-27T11:23:13;5.20;99.90
16829;DHT22;8531;48.078;11.968;2024-01-27T11:25:41;5.30;99.90
16829;DHT22;8531;48.078;11.968;2024-01-27T11:28:14;5.40;99.90
16829;DHT22;8531;48.078;11.968;2024-01-27T11:30:46;5.40;99.90
16829;DHT22;8531;48.078;11.968;2024-01-27T11:33:12;5.60;99.90
16829;DHT22;8531;48.078;11.968;2024-01-27T11:35:37;5.70;99.90
16829;DHT22;8531;48.078;11.968;2024-01-27T11:38:03;5.90;99.90
16829;DHT22;8531;48.078;11.968;2024-01-27T11:40:30;6.00;99.90
16829;DHT22;8531;48.078;11.968;2024-01-27T11:42:57;6.20;99.90
16829;DHT22;8531;48.078;11.968;2024-01-27T11:45:23;6.30;99.90
16829;DHT22;8531;48.078;11.968;2024-01-27T11:47:49;6.30;99.90
16829;DHT22;8531;48.078;11.968;2024-01-27T11:50:17;6.50;99.90
16829;DHT22;8531;48.078;11.968;2024-01-27T11:52:44;6.60;99.90
16829;DHT22;8531;48.078;11.968;2024-01-27T11:55:09;6.60;99.90
16829;DHT22;8531;48.078;11.968;2024-01-27T11:57:35;6.60;99.90
16829;DHT22;8531;48.078;11.968;2024-01-27T12:00:01;6.50;99.90
16829;DHT22;8531;48.078;11.968;2024-01-27T12:02:26;6.60;99.90
16829;DHT22;8531;48.078;11.968;2024-01-27T12:04:52;6.70;99.90
16829;DHT22;8531;48.078;11.968;2024-01-27T12:07:19;6.80;99.90
16829;DHT22;8531;48.078;11.968;2024-01-27T12:09:45;6.80;99.90
16829;DHT22;8531;48.078;11.968;2024-01-27T12:12:12;6.90;99.90
16829;DHT22;8531;48.078;11.968;2024-01-27T12:14:47;6.90;99.90
16829;DHT22;8531;48.078;11.968;2024-01-27T12:17:13;6.80;99.90
16829;DHT22;8531;48.078;11.968;2024-01-27T12:19:45;6.80;99.90
16829;DHT22;8531;48.078;11.968;2024-01-27T12:24:46;6.80;99.90
16829;DHT22;8531;48.078;11.968;2024-01-27T12:27:12;6.50;99.90
16829;DHT22;8531;48.078;11.968;2024-01-27T12:29:40;6.50;99.90
16829;DHT22;8531;48.078;11.968;2024-01-27T12:32:06;6.40;99.90
16829;DHT22;8531;48.078;11.968;2024-01-27T12:34:32;6.30;99.90
16829;DHT22;8531;48.078;11.968;2024-01-27T12:36:58;6.30;99.90
16829;DHT22;8531;48.078;11.968;2024-01-27T12:39:26;6.40;99.90
16829;DHT22;8531;48.078;11.968;2024-01-27T12:41:51;6.40;99.90
16829;DHT22;8531;48.078;11.968;2024-01-27T12:44:17;6.50;99.90
16829;DHT22;8531;48.078;11.968;2024-01-27T12:46:43;6.40;99.90
16829;DHT22;8531;48.078;11.968;2024-01-27T12:49:08;6.30;99.90
16829;DHT22;8531;48.078;11.968;2024-01-27T12:51:35;6.30;99.90
16829;DHT22;8531;48.078;11.968;2024-01-27T12:54:01;6.20;99.90
16829;DHT22;8531;48.078;11.968;2024-01-27T12:56:26;6.10;99.90
16829;DHT22;8531;48.078;11.968;2024-01-27T12:58:52;6.20;99.90
16829;DHT22;8531;48.078;11.968;2024-01-27T13:01:18;6.30;99.90
16829;DHT22;8531;48.078;11.968;2024-01-27T13:03:44;6.30;99.90
16829;DHT22;8531;48.078;11.968;2024-01-27T13:06:09;6.20;99.90
16829;DHT22;8531;48.078;11.968;2024-01-27T13:08:36;6.30;99.90
16829;DHT22;8531;48.078;11.968;2024-01-27T13:11:02;6.20;99.90
16829;DHT22;8531;48.078;11.968;2024-01-27T13:13:28;6.20;99.90
16829;DHT22;8531;48.078;11.968;2024-01-27T13:16:14;6.20;99.90
16829;DHT22;8531;48.078;11.968;2024-01-27T13:18:40;6.20;99.90
16829;DHT22;8531;48.078;11.968;2024-01-27T13:21:05;6.30;99.90
16829;DHT22;8531;48.078;11.968;2024-01-27T13:23:32;6.30;99.90
16829;DHT22;8531;48.078;11.968;2024-01-27T13:25:58;6.20;99.90
16829;DHT22;8531;48.078;11.968;2024-01-27T13:28:24;6.10;99.90
16829;DHT22;8531;48.078;11.968;2024-01-27T13:30:50;6.00;99.90
16829;DHT22;8531;48.078;11.968;2024-01-27T13:33:16;6.00;99.90
16829;DHT22;8531;48.078;11.968;2024-01-27T13:35:42;6.00;99.90
16829;DHT22;8531;48.078;11.968;2024-01-27T13:38:15;6.10;99.90
16829;DHT22;8531;48.078;11.968;2024-01-27T13:40:41;6.20;99.90
16829;DHT22;8531;48.078;11.968;2024-01-27T13:43:08;6.30;99.90
16829;DHT22;8531;48.078;11.968;2024-01-27T13:45:34;6.20;99.90
16829;DHT22;8531;48.078;11.968;2024-01-27T13:48:00;6.20;99.90
16829;DHT22;8531;48.078;11.968;2024-01-27T13:50:26;6.20;99.90
16829;DHT22;8531;48.078;11.968;2024-01-27T13:52:52;6.30;99.90
16829;DHT22;8531;48.078;11.968;2024-01-27T13:55:18;6.20;99.90
16829;DHT22;8531;48.078;11.968;2024-01-27T13:57:45;6.20;99.90
16829;DHT22;8531;48.078;11.968;2024-01-27T14:00:11;6.20;99.90
16829;DHT22;8531;48.078;11.968;2024-01-27T14:02:37;6.30;99.90
16829;DHT22;8531;48.078;11.968;2024-01-27T14:05:03;6.40;99.90
16829;DHT22;8531;48.078;11.968;2024-01-27T14:07:29;6.30;99.90
16829;DHT22;8531;48.078;11.968;2024-01-27T14:09:55;6.30;99.90
16829;DHT22;8531;48.078;11.968;2024-01-27T14:12:21;6.30;99.90
16829;DHT22;8531;48.078;11.968;2024-01-27T14:14:48;6.30;99.90
16829;DHT22;8531;48.078;11.968;2024-01-27T14:17:14;6.40;99.90
16829;DHT22;8531;48.078;11.968;2024-01-27T14:19:40;6.40;99.90
16829;DHT22;8531;48.078;11.968;2024-01-27T14:22:06;6.40;99.90
16829;DHT22;8531;48.078;11.968;2024-01-27T14:24:31;6.40;99.90
16829;DHT22;8531;48.078;11.968;2024-01-27T14:26:58;6.40;99.90
16829;DHT22;8531;48.078;11.968;2024-01-27T14:29:25;6.40;99.90
16829;DHT22;8531;48.078;11.968;2024-01-27T14:31:51;6.30;99.90
16829;DHT22;8531;48.078;11.968;2024-01-27T14:34:17;6.30;99.90
16829;DHT22;8531;48.078;11.968;2024-01-27T14:36:43;6.30;99.90
16829;DHT22;8531;48.078;11.968;2024-01-27T14:39:09;6.30;99.90
16829;DHT22;8531;48.078;11.968;2024-01-27T14:41:39;6.20;99.90
16829;DHT22;8531;48.078;11.968;2024-01-27T14:44:04;6.30;99.90
16829;DHT22;8531;48.078;11.968;2024-01-27T14:46:31;6.30;99.90
16829;DHT22;8531;48.078;11.968;2024-01-27T14:48:56;6.40;99.90
16829;DHT22;8531;48.078;11.968;2024-01-27T14:51:22;6.40;99.90
16829;DHT22;8531;48.078;11.968;2024-01-27T14:53:48;6.40;99.90
16829;DHT22;8531;48.078;11.968;2024-01-27T14:56:15;6.40;99.90
16829;DHT22;8531;48.078;11.968;2024-01-27T14:58:40;6.40;99.90
16829;DHT22;8531;48.078;11.968;2024-01-27T15:01:06;6.30;99.90
16829;DHT22;8531;48.078;11.968;2024-01-27T15:03:32;6.30;99.90
16829;DHT22;8531;48.078;11.968;2024-01-27T15:05:59;6.30;99.90
16829;DHT22;8531;48.078;11.968;2024-01-27T15:08:25;6.20;99.90
16829;DHT22;8531;48.078;11.968;2024-01-27T15:10:51;6.20;99.90
16829;DHT22;8531;48.078;11.968;2024-01-27T15:13:17;6.20;99.90
16829;DHT22;8531;48.078;11.968;2024-01-27T15:15:45;6.20;99.90
16829;DHT22;8531;48.078;11.968;2024-01-27T15:18:11;6.20;99.90
16829;DHT22;8531;48.078;11.968;2024-01-27T15:20:37;6.20;99.90
16829;DHT22;8531;48.078;11.968;2024-01-27T15:23:03;6.20;99.90
16829;DHT22;8531;48.078;11.968;2024-01-27T15:25:29;6.20;99.90
16829;DHT22;8531;48.078;11.968;2024-01-27T15:27:56;6.20;99.90
16829;DHT22;8531;48.078;11.968;2024-01-27T15:30:22;6.30;99.90
16829;DHT22;8531;48.078;11.968;2024-01-27T15:32:49;6.30;99.90
16829;DHT22;8531;48.078;11.968;2024-01-27T15:35:15;6.30;99.90
16829;DHT22;8531;48.078;11.968;2024-01-27T15:37:41;6.30;99.90
16829;DHT22;8531;48.078;11.968;2024-01-27T15:40:07;6.30;99.90
16829;DHT22;8531;48.078;11.968;2024-01-27T15:42:35;6.20;99.90